Private Wetterstation Sandau
Wetterdaten: Donnerstag, 03.01.2013
Datum Zeit Temp. A. Feuchte A. Luftdruck Regen Wind Richtung Richtung Taupunkt Windchill
03.01.2013 00:01 5,1 C 86 % 1024,2 hPa 0,0 l/m 8,6 km/h (2 Bft) SW 225 3,0 C 3,1 C
03.01.2013 00:06 5,1 C 86 % 1024,3 hPa 0,0 l/m 7,2 km/h (2 Bft) W-SW 247 3,0 C 3,5 C
03.01.2013 00:11 5,1 C 86 % 1024,3 hPa 0,0 l/m 3,2 km/h (1 Bft) S-SW 202 3,0 C 5,1 C
03.01.2013 00:16 5,1 C 86 % 1024,4 hPa 0,0 l/m 6,8 km/h (2 Bft) W-SW 247 3,0 C 3,6 C
03.01.2013 00:21 5,1 C 86 % 1024,3 hPa 0,0 l/m 10,1 km/h (2 Bft) SW 225 3,0 C 2,8 C
03.01.2013 00:26 5,1 C 86 % 1024,4 hPa 0,0 l/m 7,6 km/h (2 Bft) W 270 3,0 C 3,4 C
03.01.2013 00:31 5,1 C 86 % 1024,4 hPa 0,0 l/m 7,2 km/h (2 Bft) SW 225 3,0 C 3,5 C
03.01.2013 00:36 5,1 C 85 % 1024,1 hPa 0,0 l/m 17,6 km/h (3 Bft) SW 225 2,8 C 1,5 C
03.01.2013 00:41 5,2 C 85 % 1024,1 hPa 0,0 l/m 14,8 km/h (3 Bft) W-SW 247 2,9 C 2,0 C
03.01.2013 00:46 5,2 C 85 % 1024,3 hPa 0,0 l/m 14,4 km/h (3 Bft) W-SW 247 2,9 C 2,1 C
03.01.2013 00:51 5,2 C 85 % 1024,3 hPa 0,0 l/m 7,9 km/h (2 Bft) SW 225 2,9 C 3,4 C
03.01.2013 00:56 5,3 C 85 % 1024,1 hPa 0,0 l/m 13,3 km/h (3 Bft) W-SW 247 3,0 C 2,4 C
03.01.2013 01:01 5,3 C 85 % 1024,0 hPa 0,0 l/m 9,7 km/h (2 Bft) S-SW 202 3,0 C 3,1 C
03.01.2013 01:06 5,3 C 84 % 1024,0 hPa 0,0 l/m 5,8 km/h (2 Bft) W 270 2,8 C 4,1 C
03.01.2013 01:11 5,4 C 84 % 1024,0 hPa 0,0 l/m 18,4 km/h (3 Bft) W 270 2,9 C 1,8 C
03.01.2013 01:16 5,4 C 84 % 1023,9 hPa 0,0 l/m 18,4 km/h (3 Bft) W-SW 247 2,9 C 1,8 C
03.01.2013 01:21 5,5 C 84 % 1023,9 hPa 0,0 l/m 7,2 km/h (2 Bft) SW 225 3,0 C 3,9 C
03.01.2013 01:26 5,6 C 84 % 1024,0 hPa 0,0 l/m 16,6 km/h (3 Bft) W 270 3,1 C 2,3 C
03.01.2013 01:31 5,6 C 84 % 1024,0 hPa 0,0 l/m 9,4 km/h (2 Bft) W-SW 247 3,1 C 3,5 C
03.01.2013 01:36 5,6 C 84 % 1024,0 hPa 0,0 l/m 6,5 km/h (2 Bft) W-SW 247 3,1 C 4,3 C
03.01.2013 01:41 5,6 C 84 % 1023,9 hPa 0,0 l/m 10,4 km/h (2 Bft) S-SW 202 3,1 C 3,3 C
03.01.2013 01:46 5,7 C 84 % 1023,9 hPa 0,0 l/m 13,0 km/h (3 Bft) S 180 3,2 C 2,9 C
03.01.2013 01:51 5,8 C 84 % 1024,0 hPa 0,0 l/m 10,8 km/h (2 Bft) W 270 3,3 C 3,5 C
03.01.2013 01:56 5,8 C 84 % 1023,7 hPa 0,0 l/m 10,1 km/h (2 Bft) W 270 3,3 C 3,6 C
03.01.2013 02:01 5,8 C 83 % 1023,8 hPa 0,0 l/m 11,9 km/h (2 Bft) W-SW 247 3,1 C 3,2 C
03.01.2013 02:06 5,8 C 83 % 1023,8 hPa 0,0 l/m 6,5 km/h (2 Bft) SW 225 3,1 C 4,5 C
03.01.2013 02:11 5,9 C 83 % 1023,9 hPa 0,0 l/m 11,9 km/h (2 Bft) W-SW 247 3,2 C 3,4 C
03.01.2013 02:16 5,9 C 83 % 1024,0 hPa 0,0 l/m 19,8 km/h (3 Bft) W-SW 247 3,2 C 2,2 C
03.01.2013 02:21 5,9 C 83 % 1023,9 hPa 0,0 l/m 20,9 km/h (4 Bft) W-SW 247 3,2 C 2,1 C
03.01.2013 02:26 5,8 C 83 % 1024,0 hPa 0,0 l/m 12,6 km/h (3 Bft) W-SW 247 3,1 C 3,1 C
03.01.2013 02:31 5,8 C 83 % 1024,0 hPa 0,0 l/m 13,0 km/h (3 Bft) S 180 3,1 C 3,1 C
03.01.2013 02:36 5,9 C 83 % 1024,0 hPa 0,0 l/m 14,0 km/h (3 Bft) W-SW 247 3,2 C 3,0 C
03.01.2013 02:41 5,8 C 83 % 1023,9 hPa 0,0 l/m 14,8 km/h (3 Bft) W-SW 247 3,1 C 2,8 C
03.01.2013 02:46 5,8 C 83 % 1023,6 hPa 0,0 l/m 7,2 km/h (2 Bft) SW 225 3,1 C 4,3 C
03.01.2013 02:51 5,8 C 83 % 1023,6 hPa 0,0 l/m 11,5 km/h (2 Bft) SW 225 3,1 C 3,3 C
03.01.2013 02:56 5,8 C 83 % 1023,6 hPa 0,0 l/m 21,2 km/h (4 Bft) W-SW 247 3,1 C 1,9 C
03.01.2013 03:01 5,8 C 84 % 1023,5 hPa 0,0 l/m 10,4 km/h (2 Bft) W 270 3,3 C 3,5 C
03.01.2013 03:06 5,8 C 84 % 1023,2 hPa 0,0 l/m 12,2 km/h (2 Bft) W-SW 247 3,3 C 3,2 C
03.01.2013 03:11 5,8 C 84 % 1023,0 hPa 0,0 l/m 19,4 km/h (3 Bft) S-SW 202 3,3 C 2,1 C
03.01.2013 03:16 5,7 C 84 % 1023,0 hPa 0,0 l/m 4,0 km/h (1 Bft) W-SW 247 3,2 C 5,7 C
03.01.2013 03:21 5,7 C 84 % 1023,0 hPa 0,0 l/m 13,7 km/h (3 Bft) W-SW 247 3,2 C 2,8 C
03.01.2013 03:26 5,7 C 84 % 1023,0 hPa 0,0 l/m 10,8 km/h (2 Bft) W-SW 247 3,2 C 3,3 C
03.01.2013 03:31 5,6 C 84 % 1023,0 hPa 0,0 l/m 20,2 km/h (4 Bft) SW 225 3,1 C 1,8 C
03.01.2013 03:36 5,6 C 85 % 1022,9 hPa 0,5 l/m 20,9 km/h (4 Bft) W-SW 247 3,3 C 1,7 C
03.01.2013 03:41 5,6 C 85 % 1022,6 hPa 0,0 l/m 20,9 km/h (4 Bft) S-SW 202 3,3 C 1,7 C
03.01.2013 03:46 5,6 C 85 % 1022,4 hPa 0,0 l/m 14,0 km/h (3 Bft) W 270 3,3 C 2,6 C
03.01.2013 03:51 5,6 C 85 % 1022,4 hPa 0,0 l/m 13,7 km/h (3 Bft) W-SW 247 3,3 C 2,7 C
03.01.2013 03:56 5,6 C 85 % 1022,4 hPa 0,0 l/m 10,8 km/h (2 Bft) SW 225 3,3 C 3,2 C
03.01.2013 04:01 5,6 C 85 % 1022,3 hPa 0,0 l/m 16,6 km/h (3 Bft) W-SW 247 3,3 C 2,3 C
03.01.2013 04:06 5,7 C 85 % 1022,4 hPa 0,0 l/m 27,4 km/h (4 Bft) SW 225 3,4 C 1,2 C
03.01.2013 04:11 5,8 C 85 % 1022,2 hPa 0,0 l/m 19,1 km/h (3 Bft) SW 225 3,5 C 2,2 C
03.01.2013 04:16 5,8 C 85 % 1022,2 hPa 0,0 l/m 9,7 km/h (2 Bft) SW 225 3,5 C 3,7 C
03.01.2013 04:21 5,8 C 85 % 1022,1 hPa 0,0 l/m 10,4 km/h (2 Bft) W-SW 247 3,5 C 3,5 C
03.01.2013 04:26 5,8 C 85 % 1022,0 hPa 0,0 l/m 22,0 km/h (4 Bft) SW 225 3,5 C 1,9 C
03.01.2013 04:31 5,8 C 85 % 1021,9 hPa 0,0 l/m 15,1 km/h (3 Bft) W 270 3,5 C 2,7 C
03.01.2013 04:36 5,8 C 85 % 1022,0 hPa 0,0 l/m 9,4 km/h (2 Bft) SW 225 3,5 C 3,7 C
03.01.2013 04:41 5,8 C 85 % 1021,9 hPa 0,0 l/m 16,2 km/h (3 Bft) SW 225 3,5 C 2,6 C
03.01.2013 04:46 5,8 C 85 % 1021,8 hPa 0,0 l/m 16,9 km/h (3 Bft) W-NW 292 3,5 C 2,5 C
03.01.2013 04:51 5,8 C 85 % 1021,9 hPa 0,0 l/m 23,8 km/h (4 Bft) SW 225 3,5 C 1,7 C
03.01.2013 04:56 5,8 C 86 % 1021,9 hPa 0,0 l/m 7,6 km/h (2 Bft) W-SW 247 3,6 C 4,2 C
03.01.2013 05:01 5,6 C 86 % 1021,7 hPa 0,0 l/m 20,9 km/h (4 Bft) S-SW 202 3,4 C 1,7 C
03.01.2013 05:06 5,6 C 86 % 1021,6 hPa 0,0 l/m 19,1 km/h (3 Bft) SW 225 3,4 C 1,9 C
03.01.2013 05:11 5,6 C 86 % 1021,9 hPa 0,0 l/m 13,0 km/h (3 Bft) S 180 3,4 C 2,8 C
03.01.2013 05:16 5,6 C 86 % 1021,6 hPa 0,0 l/m 9,0 km/h (2 Bft) SW 225 3,4 C 3,6 C
03.01.2013 05:21 5,6 C 87 % 1021,6 hPa 0,0 l/m 10,8 km/h (2 Bft) W-SW 247 3,6 C 3,2 C
03.01.2013 05:26 5,6 C 87 % 1021,5 hPa 0,0 l/m 14,4 km/h (3 Bft) SW 225 3,6 C 2,6 C
03.01.2013 05:31 5,5 C 88 % 1021,2 hPa 0,0 l/m 12,2 km/h (2 Bft) W-SW 247 3,7 C 2,8 C
03.01.2013 05:36 5,5 C 88 % 1021,4 hPa 0,0 l/m 17,6 km/h (3 Bft) SW 225 3,7 C 2,0 C
03.01.2013 05:41 5,5 C 88 % 1021,3 hPa 0,0 l/m 17,3 km/h (3 Bft) SW 225 3,7 C 2,0 C
03.01.2013 05:46 5,5 C 89 % 1021,2 hPa 0,0 l/m 18,4 km/h (3 Bft) W-SW 247 3,8 C 1,9 C
03.01.2013 05:51 5,5 C 89 % 1021,0 hPa 0,0 l/m 14,4 km/h (3 Bft) W-SW 247 3,8 C 2,5 C
03.01.2013 05:56 5,4 C 89 % 1021,1 hPa 0,0 l/m 6,1 km/h (2 Bft) W-SW 247 3,7 C 4,2 C
03.01.2013 06:01 5,4 C 89 % 1020,9 hPa 0,0 l/m 25,2 km/h (4 Bft) W-SW 247 3,7 C 1,0 C
03.01.2013 06:06 5,4 C 89 % 1020,8 hPa 0,0 l/m 14,0 km/h (3 Bft) W-SW 247 3,7 C 2,4 C
03.01.2013 06:11 5,4 C 90 % 1020,8 hPa 0,0 l/m 11,2 km/h (2 Bft) W 270 3,9 C 2,9 C
03.01.2013 06:16 5,4 C 90 % 1020,8 hPa 0,5 l/m 18,4 km/h (3 Bft) W-SW 247 3,9 C 1,8 C
03.01.2013 06:21 5,4 C 90 % 1020,7 hPa 0,0 l/m 10,8 km/h (2 Bft) W-SW 247 3,9 C 3,0 C
03.01.2013 06:26 5,4 C 90 % 1020,8 hPa 0,0 l/m 20,9 km/h (4 Bft) SW 225 3,9 C 1,5 C
03.01.2013 06:31 5,4 C 91 % 1020,7 hPa 0,0 l/m 18,0 km/h (3 Bft) S-SW 202 4,1 C 1,8 C
03.01.2013 06:36 5,4 C 91 % 1020,8 hPa 0,0 l/m 5,4 km/h (1 Bft) W 270 4,1 C 4,4 C
03.01.2013 06:41 5,5 C 91 % 1020,8 hPa 0,0 l/m 15,8 km/h (3 Bft) W-SW 247 4,2 C 2,2 C
03.01.2013 06:46 5,5 C 91 % 1020,9 hPa 0,0 l/m 16,6 km/h (3 Bft) W-SW 247 4,2 C 2,1 C
03.01.2013 06:51 5,6 C 91 % 1020,8 hPa 0,5 l/m 14,0 km/h (3 Bft) W-SW 247 4,2 C 2,6 C
03.01.2013 06:56 5,6 C 91 % 1020,6 hPa 0,0 l/m 24,8 km/h (4 Bft) W-SW 247 4,2 C 1,3 C
03.01.2013 07:01 5,6 C 91 % 1020,5 hPa 0,0 l/m 12,2 km/h (2 Bft) W 270 4,2 C 2,9 C
03.01.2013 07:06 5,7 C 91 % 1020,7 hPa 0,0 l/m 20,5 km/h (4 Bft) SW 225 4,3 C 1,9 C
03.01.2013 07:11 5,8 C 92 % 1020,7 hPa 0,0 l/m 21,6 km/h (4 Bft) W 270 4,6 C 1,9 C
03.01.2013 07:16 5,8 C 92 % 1020,8 hPa 0,0 l/m 20,9 km/h (4 Bft) W-SW 247 4,6 C 2,0 C
03.01.2013 07:21 5,9 C 92 % 1020,5 hPa 0,0 l/m 24,1 km/h (4 Bft) W 270 4,7 C 1,8 C
03.01.2013 07:26 5,9 C 92 % 1020,7 hPa 0,0 l/m 13,3 km/h (3 Bft) W 270 4,7 C 3,1 C
03.01.2013 07:31 5,9 C 92 % 1020,7 hPa 0,0 l/m 19,1 km/h (3 Bft) W-SW 247 4,7 C 2,3 C
03.01.2013 07:36 6,1 C 92 % 1020,8 hPa 0,0 l/m 24,5 km/h (4 Bft) W-SW 247 4,9 C 2,0 C
03.01.2013 07:41 6,1 C 92 % 1020,6 hPa 0,0 l/m 24,5 km/h (4 Bft) W 270 4,9 C 2,0 C
03.01.2013 07:46 6,2 C 92 % 1020,9 hPa 0,0 l/m 19,4 km/h (3 Bft) W 270 5,0 C 2,7 C
03.01.2013 07:51 6,3 C 92 % 1020,8 hPa 0,0 l/m 34,9 km/h (5 Bft) W 270 5,1 C 1,4 C
03.01.2013 07:56 6,3 C 91 % 1020,8 hPa 0,0 l/m 23,4 km/h (4 Bft) W-SW 247 4,9 C 2,3 C
03.01.2013 08:01 6,4 C 92 % 1020,9 hPa 0,0 l/m 10,8 km/h (2 Bft) W-SW 247 5,2 C 4,2 C
03.01.2013 08:06 6,4 C 92 % 1020,8 hPa 0,0 l/m 28,8 km/h (4 Bft) W 270 5,2 C 2,0 C
03.01.2013 08:11 6,5 C 92 % 1021,0 hPa 0,0 l/m 13,3 km/h (3 Bft) W-NW 292 5,3 C 3,9 C
03.01.2013 08:16 6,5 C 92 % 1020,9 hPa 0,0 l/m 25,6 km/h (4 Bft) W 270 5,3 C 2,4 C
03.01.2013 08:21 6,6 C 92 % 1021,1 hPa 0,0 l/m 30,2 km/h (5 Bft) W 270 5,4 C 2,1 C
03.01.2013 08:26 6,6 C 92 % 1020,9 hPa 0,0 l/m 9,7 km/h (2 Bft) W-NW 292 5,4 C 4,6 C
03.01.2013 08:31 6,7 C 92 % 1020,9 hPa 0,0 l/m 12,6 km/h (3 Bft) W-NW 292 5,5 C 4,2 C
03.01.2013 08:36 6,7 C 92 % 1021,1 hPa 0,0 l/m 20,5 km/h (4 Bft) W-SW 247 5,5 C 3,2 C
03.01.2013 08:41 6,8 C 92 % 1021,1 hPa 0,0 l/m 22,0 km/h (4 Bft) W 270 5,6 C 3,1 C
03.01.2013 08:46 6,8 C 92 % 1021,1 hPa 0,0 l/m 8,6 km/h (2 Bft) W-NW 292 5,6 C 5,1 C
03.01.2013 08:51 6,9 C 92 % 1021,2 hPa 0,0 l/m 15,5 km/h (3 Bft) W-SW 247 5,7 C 4,0 C
03.01.2013 08:56 6,9 C 92 % 1021,1 hPa 0,0 l/m 16,9 km/h (3 Bft) W 270 5,7 C 3,8 C
03.01.2013 09:01 7,0 C 92 % 1021,3 hPa 0,0 l/m 8,3 km/h (2 Bft) W 270 5,8 C 5,4 C
03.01.2013 09:06 7,1 C 92 % 1021,2 hPa 0,0 l/m 9,7 km/h (2 Bft) SW 225 5,9 C 5,2 C
03.01.2013 09:11 7,2 C 92 % 1021,2 hPa 0,0 l/m 11,2 km/h (2 Bft) W-SW 247 6,0 C 5,1 C
03.01.2013 09:16 7,2 C 92 % 1021,2 hPa 0,0 l/m 14,0 km/h (3 Bft) W-NW 292 6,0 C 4,6 C
03.01.2013 09:21 7,2 C 92 % 1021,1 hPa 0,0 l/m 14,8 km/h (3 Bft) W 270 6,0 C 4,5 C
03.01.2013 09:26 7,2 C 92 % 1021,1 hPa 0,0 l/m 13,3 km/h (3 Bft) W 270 6,0 C 4,7 C
03.01.2013 09:31 7,3 C 92 % 1021,4 hPa 0,0 l/m 10,1 km/h (2 Bft) W-SW 247 6,1 C 5,4 C
03.01.2013 09:36 7,3 C 92 % 1021,2 hPa 0,0 l/m 9,0 km/h (2 Bft) SW 225 6,1 C 5,6 C
03.01.2013 09:41 7,4 C 92 % 1021,0 hPa 0,0 l/m 13,7 km/h (3 Bft) W 270 6,2 C 4,9 C
03.01.2013 09:46 7,4 C 92 % 1021,0 hPa 0,0 l/m 15,8 km/h (3 Bft) W 270 6,2 C 4,6 C
03.01.2013 09:51 7,5 C 92 % 1021,1 hPa 0,0 l/m 18,4 km/h (3 Bft) W-SW 247 6,3 C 4,4 C
03.01.2013 09:56 7,6 C 92 % 1021,0 hPa 0,0 l/m 8,6 km/h (2 Bft) W-SW 247 6,4 C 6,1 C
03.01.2013 10:01 7,8 C 92 % 1021,0 hPa 0,0 l/m 21,6 km/h (4 Bft) W 270 6,6 C 4,4 C
03.01.2013 10:06 7,8 C 92 % 1021,0 hPa 0,0 l/m 25,6 km/h (4 Bft) W-SW 247 6,6 C 4,1 C
03.01.2013 10:11 7,8 C 91 % 1021,2 hPa 0,0 l/m 18,4 km/h (3 Bft) W-SW 247 6,4 C 4,8 C
03.01.2013 10:16 7,9 C 91 % 1021,1 hPa 0,0 l/m 7,2 km/h (2 Bft) S-SW 202 6,5 C 6,7 C
03.01.2013 10:21 7,9 C 91 % 1021,4 hPa 0,0 l/m 11,2 km/h (2 Bft) W-SW 247 6,5 C 5,9 C
03.01.2013 10:26 8,1 C 91 % 1021,4 hPa 0,0 l/m 22,7 km/h (4 Bft) W 270 6,7 C 4,7 C
03.01.2013 10:31 8,1 C 91 % 1021,3 hPa 0,0 l/m 7,6 km/h (2 Bft) W-SW 247 6,7 C 6,9 C
03.01.2013 10:36 8,2 C 91 % 1021,2 hPa 0,0 l/m 16,9 km/h (3 Bft) W 270 6,8 C 5,5 C
03.01.2013 10:41 8,3 C 91 % 1021,3 hPa 0,0 l/m 20,5 km/h (4 Bft) W-NW 292 6,9 C 5,2 C
03.01.2013 10:46 8,4 C 91 % 1021,3 hPa 0,0 l/m 6,5 km/h (2 Bft) SW 225 7,0 C 7,5 C
03.01.2013 10:51 8,4 C 91 % 1021,4 hPa 0,0 l/m 27,0 km/h (4 Bft) W 270 7,0 C 4,7 C
03.01.2013 10:56 8,4 C 91 % 1021,4 hPa 0,0 l/m 28,8 km/h (4 Bft) W-SW 247 7,0 C 4,6 C
03.01.2013 11:01 8,5 C 91 % 1021,3 hPa 0,0 l/m 15,8 km/h (3 Bft) W-SW 247 7,1 C 6,0 C
03.01.2013 11:06 8,5 C 91 % 1021,5 hPa 0,0 l/m 6,5 km/h (2 Bft) NW 315 7,1 C 7,6 C
03.01.2013 11:11 8,6 C 91 % 1021,6 hPa 0,0 l/m 18,7 km/h (3 Bft) N-NW 337 7,2 C 5,7 C
03.01.2013 11:16 8,6 C 91 % 1021,6 hPa 0,0 l/m 9,0 km/h (2 Bft) W-NW 292 7,2 C 7,2 C
03.01.2013 11:21 8,7 C 91 % 1021,6 hPa 0,0 l/m 21,6 km/h (4 Bft) NW 315 7,3 C 5,6 C
03.01.2013 11:26 8,8 C 91 % 1021,5 hPa 0,0 l/m 19,8 km/h (3 Bft) W 270 7,4 C 5,9 C
03.01.2013 11:31 8,8 C 91 % 1021,1 hPa 0,0 l/m 28,4 km/h (4 Bft) NW 315 7,4 C 5,1 C
03.01.2013 11:36 8,8 C 91 % 1021,4 hPa 0,0 l/m 14,8 km/h (3 Bft) W-NW 292 7,4 C 6,5 C
03.01.2013 11:41 8,8 C 91 % 1021,6 hPa 0,0 l/m 9,4 km/h (2 Bft) W 270 7,4 C 7,3 C
03.01.2013 11:46 8,9 C 91 % 1021,7 hPa 0,0 l/m 10,1 km/h (2 Bft) W 270 7,5 C 7,3 C
03.01.2013 11:51 9,0 C 91 % 1021,5 hPa 0,0 l/m 10,8 km/h (2 Bft) W-NW 292 7,6 C 7,3 C
03.01.2013 11:56 9,1 C 91 % 1021,6 hPa 0,0 l/m 8,3 km/h (2 Bft) W-NW 292 7,7 C 7,9 C
03.01.2013 12:01 9,2 C 90 % 1021,7 hPa 0,0 l/m 14,8 km/h (3 Bft) W-NW 292 7,6 C 7,0 C
03.01.2013 12:06 9,2 C 90 % 1021,8 hPa 0,0 l/m 20,2 km/h (4 Bft) W-NW 292 7,6 C 6,3 C
03.01.2013 12:11 9,3 C 90 % 1021,9 hPa 0,0 l/m 24,5 km/h (4 Bft) W 270 7,7 C 6,1 C
03.01.2013 12:16 9,3 C 90 % 1021,9 hPa 0,0 l/m 6,8 km/h (2 Bft) W-NW 292 7,7 C 8,5 C
03.01.2013 12:21 9,3 C 90 % 1021,9 hPa 0,0 l/m 11,9 km/h (2 Bft) W-SW 247 7,7 C 7,5 C
03.01.2013 12:26 9,4 C 90 % 1021,8 hPa 0,0 l/m 13,0 km/h (3 Bft) W-SW 247 7,8 C 7,4 C
03.01.2013 12:31 9,4 C 90 % 1021,9 hPa 0,0 l/m 13,0 km/h (3 Bft) W 270 7,8 C 7,4 C
03.01.2013 12:36 9,5 C 90 % 1021,9 hPa 0,0 l/m 7,9 km/h (2 Bft) W-SW 247 7,9 C 8,4 C
03.01.2013 12:41 9,4 C 90 % 1021,9 hPa 0,0 l/m 4,7 km/h (1 Bft) W-NW 292 7,8 C 9,2 C
03.01.2013 12:46 9,5 C 90 % 1022,0 hPa 0,0 l/m 19,1 km/h (3 Bft) W 270 7,9 C 6,8 C
03.01.2013 12:51 9,6 C 90 % 1021,8 hPa 0,0 l/m 14,4 km/h (3 Bft) W-NW 292 8,0 C 7,5 C
03.01.2013 12:56 9,6 C 90 % 1021,9 hPa 0,0 l/m 25,6 km/h (4 Bft) W-NW 292 8,0 C 6,4 C
03.01.2013 13:01 9,6 C 90 % 1021,9 hPa 0,0 l/m 10,4 km/h (2 Bft) W 270 8,0 C 8,1 C
03.01.2013 13:06 9,6 C 90 % 1021,8 hPa 0,0 l/m 18,4 km/h (3 Bft) W-SW 247 8,0 C 7,0 C
03.01.2013 13:11 9,8 C 90 % 1021,6 hPa 0,0 l/m 23,0 km/h (4 Bft) W-SW 247 8,2 C 6,9 C
03.01.2013 13:16 9,8 C 90 % 1021,7 hPa 0,0 l/m 6,5 km/h (2 Bft) W-SW 247 8,2 C 9,1 C
03.01.2013 13:21 9,8 C 90 % 1021,6 hPa 0,0 l/m 15,1 km/h (3 Bft) W-SW 247 8,2 C 7,7 C
03.01.2013 13:26 9,9 C 90 % 1021,6 hPa 0,0 l/m 19,4 km/h (3 Bft) W 270 8,3 C 7,3 C
03.01.2013 13:31 9,9 C 90 % 1021,8 hPa 0,0 l/m 17,3 km/h (3 Bft) W 270 8,3 C 7,5 C
03.01.2013 13:36 10,1 C 90 % 1021,7 hPa 0,0 l/m 15,8 km/h (3 Bft) W 270 8,5 C 10,1 C
03.01.2013 13:41 10,1 C 90 % 1021,7 hPa 0,0 l/m 9,0 km/h (2 Bft) W 270 8,5 C 10,1 C
03.01.2013 13:46 9,9 C 90 % 1021,9 hPa 0,0 l/m 15,8 km/h (3 Bft) W-SW 247 8,3 C 7,7 C
03.01.2013 13:51 9,9 C 90 % 1021,8 hPa 0,0 l/m 10,1 km/h (2 Bft) W 270 8,3 C 8,5 C
03.01.2013 13:56 9,9 C 91 % 1021,8 hPa 0,0 l/m 9,4 km/h (2 Bft) NW 315 8,5 C 8,6 C
03.01.2013 14:01 9,9 C 91 % 1021,8 hPa 0,0 l/m 26,3 km/h (4 Bft) W 270 8,5 C 6,7 C
03.01.2013 14:06 9,8 C 91 % 1021,9 hPa 0,0 l/m 12,2 km/h (2 Bft) W-SW 247 8,4 C 8,0 C
03.01.2013 14:11 9,8 C 91 % 1022,0 hPa 0,0 l/m 16,9 km/h (3 Bft) W 270 8,4 C 7,4 C
03.01.2013 14:16 9,8 C 92 % 1022,1 hPa 0,0 l/m 16,9 km/h (3 Bft) W-SW 247 8,6 C 7,4 C
03.01.2013 14:21 9,8 C 92 % 1022,1 hPa 0,0 l/m 25,2 km/h (4 Bft) W-NW 292 8,6 C 6,7 C
03.01.2013 14:26 9,8 C 92 % 1022,1 hPa 0,0 l/m 5,8 km/h (2 Bft) W-SW 247 8,6 C 9,3 C
03.01.2013 14:31 9,8 C 92 % 1022,2 hPa 0,0 l/m 15,8 km/h (3 Bft) W 270 8,6 C 7,6 C
03.01.2013 14:36 9,9 C 92 % 1022,2 hPa 0,0 l/m 7,2 km/h (2 Bft) W-NW 292 8,7 C 9,1 C
03.01.2013 14:41 9,8 C 92 % 1022,1 hPa 0,0 l/m 18,0 km/h (3 Bft) W 270 8,6 C 7,3 C
03.01.2013 14:46 9,9 C 92 % 1022,1 hPa 0,0 l/m 23,8 km/h (4 Bft) W 270 8,7 C 6,9 C
03.01.2013 14:51 9,9 C 92 % 1022,1 hPa 0,0 l/m 9,4 km/h (2 Bft) W 270 8,7 C 8,6 C
03.01.2013 14:56 9,9 C 92 % 1022,1 hPa 0,0 l/m 14,8 km/h (3 Bft) W-NW 292 8,7 C 7,8 C
03.01.2013 15:01 9,9 C 92 % 1022,2 hPa 0,0 l/m 23,4 km/h (4 Bft) W 270 8,7 C 6,9 C
03.01.2013 15:06 9,9 C 92 % 1022,2 hPa 0,0 l/m 17,3 km/h (3 Bft) W-SW 247 8,7 C 7,5 C
03.01.2013 15:11 9,9 C 92 % 1022,5 hPa 0,0 l/m 7,6 km/h (2 Bft) SW 225 8,7 C 9,0 C
03.01.2013 15:16 9,9 C 92 % 1022,3 hPa 0,0 l/m 11,9 km/h (2 Bft) W-SW 247 8,7 C 8,2 C
03.01.2013 15:21 9,9 C 92 % 1022,3 hPa 0,0 l/m 17,3 km/h (3 Bft) W 270 8,7 C 7,5 C
03.01.2013 15:26 9,9 C 92 % 1022,3 hPa 0,0 l/m 8,3 km/h (2 Bft) W-SW 247 8,7 C 8,8 C
03.01.2013 15:31 9,8 C 92 % 1022,3 hPa 0,0 l/m 14,4 km/h (3 Bft) W 270 8,6 C 7,7 C
03.01.2013 15:36 9,8 C 92 % 1022,5 hPa 0,0 l/m 32,0 km/h (5 Bft) W 270 8,6 C 6,2 C
03.01.2013 15:41 9,8 C 92 % 1022,6 hPa 0,0 l/m 8,6 km/h (2 Bft) W 270 8,6 C 8,7 C
03.01.2013 15:46 9,8 C 92 % 1022,6 hPa 0,0 l/m 12,2 km/h (2 Bft) W-NW 292 8,6 C 8,0 C
03.01.2013 15:51 9,9 C 92 % 1022,8 hPa 0,0 l/m 9,4 km/h (2 Bft) W-NW 292 8,7 C 8,6 C
03.01.2013 15:56 9,9 C 92 % 1022,8 hPa 0,0 l/m 21,2 km/h (4 Bft) W 270 8,7 C 7,1 C
03.01.2013 16:01 9,9 C 92 % 1022,8 hPa 0,0 l/m 4,7 km/h (1 Bft) W-SW 247 8,7 C 9,7 C
03.01.2013 16:06 9,9 C 92 % 1022,9 hPa 0,0 l/m 16,9 km/h (3 Bft) W-NW 292 8,7 C 7,6 C
03.01.2013 16:11 9,9 C 92 % 1022,8 hPa 0,0 l/m 11,2 km/h (2 Bft) W 270 8,7 C 8,3 C
03.01.2013 16:16 9,9 C 92 % 1022,9 hPa 0,0 l/m 9,7 km/h (2 Bft) W-NW 292 8,7 C 8,6 C
03.01.2013 16:21 9,9 C 92 % 1023,1 hPa 0,0 l/m 8,6 km/h (2 Bft) W-NW 292 8,7 C 8,8 C
03.01.2013 16:26 9,9 C 92 % 1022,9 hPa 0,0 l/m 33,1 km/h (5 Bft) W-SW 247 8,7 C 6,2 C
03.01.2013 16:31 9,9 C 92 % 1023,0 hPa 0,0 l/m 19,8 km/h (3 Bft) W 270 8,7 C 7,3 C
03.01.2013 16:36 9,9 C 92 % 1023,1 hPa 0,0 l/m 8,6 km/h (2 Bft) NW 315 8,7 C 8,8 C
03.01.2013 16:41 9,9 C 91 % 1023,1 hPa 0,0 l/m 12,6 km/h (3 Bft) W-SW 247 8,5 C 8,1 C
03.01.2013 16:46 9,9 C 92 % 1023,3 hPa 0,0 l/m 16,9 km/h (3 Bft) W 270 8,7 C 7,6 C
03.01.2013 16:51 9,9 C 92 % 1023,3 hPa 0,0 l/m 10,1 km/h (2 Bft) W-NW 292 8,7 C 8,5 C
03.01.2013 16:56 9,9 C 92 % 1023,4 hPa 0,5 l/m 7,2 km/h (2 Bft) NW 315 8,7 C 9,1 C
03.01.2013 17:01 9,8 C 92 % 1023,3 hPa 0,0 l/m 4,7 km/h (1 Bft) W 270 8,6 C 9,6 C
03.01.2013 17:06 9,7 C 92 % 1023,4 hPa 0,0 l/m 10,8 km/h (2 Bft) W-NW 292 8,5 C 8,1 C
03.01.2013 17:11 9,6 C 92 % 1023,3 hPa 0,5 l/m 9,0 km/h (2 Bft) W-NW 292 8,4 C 8,3 C
03.01.2013 17:16 9,6 C 92 % 1023,4 hPa 0,0 l/m 14,8 km/h (3 Bft) W 270 8,4 C 7,4 C
03.01.2013 17:21 9,6 C 92 % 1023,4 hPa 0,0 l/m 5,8 km/h (2 Bft) W 270 8,4 C 9,1 C
03.01.2013 17:26 9,8 C 92 % 1023,3 hPa 0,0 l/m 10,4 km/h (2 Bft) W 270 8,6 C 8,3 C
03.01.2013 17:31 9,8 C 92 % 1023,5 hPa 0,0 l/m 8,3 km/h (2 Bft) W 270 8,6 C 8,7 C
03.01.2013 17:36 9,8 C 92 % 1023,7 hPa 0,0 l/m 8,6 km/h (2 Bft) W-NW 292 8,6 C 8,7 C
03.01.2013 17:41 9,8 C 92 % 1023,7 hPa 0,0 l/m 9,4 km/h (2 Bft) NW 315 8,6 C 8,5 C
03.01.2013 17:46 9,8 C 92 % 1024,0 hPa 0,0 l/m 14,8 km/h (3 Bft) W 270 8,6 C 7,7 C
03.01.2013 17:51 9,8 C 92 % 1023,9 hPa 0,0 l/m 13,7 km/h (3 Bft) N-NW 337 8,6 C 7,8 C
03.01.2013 17:56 9,8 C 92 % 1024,0 hPa 0,0 l/m 11,2 km/h (2 Bft) W-NW 292 8,6 C 8,2 C
03.01.2013 18:01 9,7 C 92 % 1024,1 hPa 0,0 l/m 13,0 km/h (3 Bft) W-NW 292 8,5 C 7,8 C
03.01.2013 18:06 9,8 C 92 % 1024,2 hPa 0,0 l/m 14,8 km/h (3 Bft) NW 315 8,6 C 7,7 C
03.01.2013 18:11 9,6 C 92 % 1024,4 hPa 0,0 l/m 16,9 km/h (3 Bft) NW 315 8,4 C 7,2 C
03.01.2013 18:16 9,6 C 92 % 1024,5 hPa 0,5 l/m 12,2 km/h (2 Bft) W 270 8,4 C 7,8 C
03.01.2013 18:21 9,6 C 92 % 1024,7 hPa 0,0 l/m 22,3 km/h (4 Bft) NW 315 8,4 C 6,7 C
03.01.2013 18:26 9,5 C 92 % 1024,8 hPa 0,0 l/m 15,8 km/h (3 Bft) NW 315 8,3 C 7,2 C
03.01.2013 18:31 9,5 C 92 % 1024,7 hPa 0,0 l/m 9,0 km/h (2 Bft) W 270 8,3 C 8,2 C
03.01.2013 18:36 9,4 C 92 % 1024,7 hPa 0,0 l/m 7,6 km/h (2 Bft) NW 315 8,2 C 8,4 C
03.01.2013 18:41 9,4 C 92 % 1024,8 hPa 0,0 l/m 15,5 km/h (3 Bft) NW 315 8,2 C 7,1 C
03.01.2013 18:46 9,3 C 92 % 1024,5 hPa 0,0 l/m 25,9 km/h (4 Bft) W-NW 292 8,1 C 6,0 C
03.01.2013 18:51 9,3 C 91 % 1024,7 hPa 0,0 l/m 6,1 km/h (2 Bft) W 270 7,9 C 8,6 C
03.01.2013 18:56 9,3 C 91 % 1024,7 hPa 0,0 l/m 16,6 km/h (3 Bft) W 270 7,9 C 6,9 C
03.01.2013 19:01 9,2 C 90 % 1024,9 hPa 0,0 l/m 18,7 km/h (3 Bft) NW 315 7,6 C 6,5 C
03.01.2013 19:06 9,2 C 90 % 1025,0 hPa 0,0 l/m 20,9 km/h (4 Bft) W-NW 292 7,6 C 6,3 C
03.01.2013 19:11 9,1 C 89 % 1025,0 hPa 0,0 l/m 11,5 km/h (2 Bft) W 270 7,4 C 7,3 C
03.01.2013 19:16 9,1 C 89 % 1025,0 hPa 0,0 l/m 19,8 km/h (3 Bft) NW 315 7,4 C 6,3 C
03.01.2013 19:21 9,1 C 89 % 1025,0 hPa 0,0 l/m 14,8 km/h (3 Bft) W-NW 292 7,4 C 6,8 C
03.01.2013 19:26 9,1 C 89 % 1024,9 hPa 0,0 l/m 22,3 km/h (4 Bft) W-NW 292 7,4 C 6,0 C
03.01.2013 19:31 9,1 C 88 % 1025,1 hPa 0,0 l/m 20,5 km/h (4 Bft) W-NW 292 7,2 C 6,2 C
03.01.2013 19:36 9,0 C 88 % 1025,2 hPa 0,0 l/m 16,6 km/h (3 Bft) NW 315 7,1 C 6,5 C
03.01.2013 19:41 9,0 C 88 % 1025,2 hPa 0,0 l/m 18,0 km/h (3 Bft) W-NW 292 7,1 C 6,3 C
03.01.2013 19:46 8,9 C 88 % 1025,2 hPa 0,0 l/m 12,2 km/h (2 Bft) W-NW 292 7,0 C 7,0 C
03.01.2013 19:51 8,9 C 88 % 1025,3 hPa 0,0 l/m 26,3 km/h (4 Bft) NW 315 7,0 C 5,4 C
03.01.2013 19:56 8,9 C 88 % 1025,5 hPa 0,0 l/m 19,8 km/h (3 Bft) W 270 7,0 C 6,0 C
03.01.2013 20:01 8,9 C 87 % 1025,2 hPa 0,0 l/m 25,6 km/h (4 Bft) W-NW 292 6,9 C 5,5 C
03.01.2013 20:06 8,8 C 87 % 1025,3 hPa 0,0 l/m 16,6 km/h (3 Bft) NW 315 6,8 C 6,2 C
03.01.2013 20:11 8,7 C 87 % 1025,6 hPa 0,0 l/m 18,7 km/h (3 Bft) N-NW 337 6,7 C 5,9 C
03.01.2013 20:16 8,6 C 87 % 1025,8 hPa 0,0 l/m 11,9 km/h (2 Bft) NW 315 6,6 C 6,6 C
03.01.2013 20:21 8,6 C 87 % 1025,9 hPa 0,0 l/m 20,5 km/h (4 Bft) W-NW 292 6,6 C 5,6 C
03.01.2013 20:26 8,6 C 87 % 1026,0 hPa 0,0 l/m 13,3 km/h (3 Bft) NW 315 6,6 C 6,4 C
03.01.2013 20:31 8,5 C 87 % 1026,2 hPa 0,0 l/m 22,7 km/h (4 Bft) NW 315 6,5 C 5,2 C
03.01.2013 20:36 8,5 C 87 % 1026,2 hPa 0,0 l/m 20,2 km/h (4 Bft) NW 315 6,5 C 5,5 C
03.01.2013 20:41 8,5 C 87 % 1026,2 hPa 0,0 l/m 8,3 km/h (2 Bft) W 270 6,5 C 7,2 C
03.01.2013 20:46 8,4 C 87 % 1026,1 hPa 0,0 l/m 14,4 km/h (3 Bft) W-NW 292 6,4 C 6,0 C
03.01.2013 20:51 8,4 C 87 % 1026,2 hPa 0,0 l/m 17,6 km/h (3 Bft) W-NW 292 6,4 C 5,6 C
03.01.2013 20:56 8,4 C 87 % 1026,1 hPa 0,0 l/m 27,7 km/h (4 Bft) W-NW 292 6,4 C 4,7 C
03.01.2013 21:01 8,4 C 87 % 1025,9 hPa 0,0 l/m 10,8 km/h (2 Bft) W-SW 247 6,4 C 6,6 C
03.01.2013 21:06 8,4 C 86 % 1026,2 hPa 0,0 l/m 5,4 km/h (1 Bft) W-NW 292 6,2 C 7,8 C
03.01.2013 21:11 8,4 C 86 % 1026,1 hPa 0,0 l/m 20,5 km/h (4 Bft) W-NW 292 6,2 C 5,3 C
03.01.2013 21:16 8,4 C 86 % 1026,1 hPa 0,0 l/m 24,5 km/h (4 Bft) W-NW 292 6,2 C 4,9 C
03.01.2013 21:21 8,4 C 86 % 1026,3 hPa 0,0 l/m 13,0 km/h (3 Bft) W 270 6,2 C 6,2 C
03.01.2013 21:26 8,3 C 86 % 1026,4 hPa 0,0 l/m 14,4 km/h (3 Bft) W-NW 292 6,1 C 5,9 C
03.01.2013 21:31 8,3 C 86 % 1026,5 hPa 0,0 l/m 8,6 km/h (2 Bft) NW 315 6,1 C 6,9 C
03.01.2013 21:36 8,2 C 87 % 1026,8 hPa 0,0 l/m 4,3 km/h (1 Bft) W-NW 292 6,2 C 8,2 C
03.01.2013 21:41 8,1 C 87 % 1026,4 hPa 0,0 l/m 11,2 km/h (2 Bft) W 270 6,1 C 6,1 C
03.01.2013 21:46 8,1 C 87 % 1026,2 hPa 0,0 l/m 10,8 km/h (2 Bft) NW 315 6,1 C 6,2 C
03.01.2013 21:51 8,1 C 87 % 1026,3 hPa 0,0 l/m 19,8 km/h (3 Bft) W-NW 292 6,1 C 5,0 C
03.01.2013 21:56 8,1 C 87 % 1026,4 hPa 0,0 l/m 10,4 km/h (2 Bft) W 270 6,1 C 6,3 C
03.01.2013 22:01 8,1 C 87 % 1026,4 hPa 0,0 l/m 17,6 km/h (3 Bft) NW 315 6,1 C 5,2 C
03.01.2013 22:06 8,1 C 87 % 1026,3 hPa 0,0 l/m 19,8 km/h (3 Bft) W-NW 292 6,1 C 5,0 C
03.01.2013 22:11 8,1 C 87 % 1026,3 hPa 0,0 l/m 8,6 km/h (2 Bft) NW 315 6,1 C 6,6 C
03.01.2013 22:16 7,9 C 87 % 1026,4 hPa 0,0 l/m 9,4 km/h (2 Bft) NW 315 5,9 C 6,2 C
03.01.2013 22:21 7,9 C 87 % 1026,2 hPa 0,0 l/m 16,6 km/h (3 Bft) W 270 5,9 C 5,1 C
03.01.2013 22:26 7,9 C 87 % 1026,3 hPa 0,0 l/m 24,5 km/h (4 Bft) W-NW 292 5,9 C 4,3 C
03.01.2013 22:31 7,8 C 87 % 1026,4 hPa 0,0 l/m 20,5 km/h (4 Bft) W 270 5,8 C 4,5 C
03.01.2013 22:36 7,8 C 87 % 1026,6 hPa 0,0 l/m 9,0 km/h (2 Bft) W-SW 247 5,8 C 6,2 C
03.01.2013 22:41 7,8 C 87 % 1026,6 hPa 0,0 l/m 10,4 km/h (2 Bft) W-NW 292 5,8 C 5,9 C
03.01.2013 22:46 7,8 C 87 % 1026,7 hPa 0,0 l/m 5,0 km/h (1 Bft) W-SW 247 5,8 C 7,3 C
03.01.2013 22:51 7,8 C 87 % 1026,6 hPa 0,0 l/m 19,4 km/h (3 Bft) W-NW 292 5,8 C 4,7 C
03.01.2013 22:56 7,7 C 87 % 1026,8 hPa 0,0 l/m 23,0 km/h (4 Bft) W-NW 292 5,7 C 4,2 C
03.01.2013 23:01 7,6 C 87 % 1027,0 hPa 0,0 l/m 12,6 km/h (3 Bft) W-NW 292 5,6 C 5,3 C
03.01.2013 23:06 7,6 C 87 % 1027,0 hPa 0,0 l/m 14,4 km/h (3 Bft) W-NW 292 5,6 C 5,0 C
03.01.2013 23:11 7,6 C 87 % 1027,2 hPa 0,0 l/m 11,2 km/h (2 Bft) W 270 5,6 C 5,5 C
03.01.2013 23:16 7,6 C 87 % 1027,6 hPa 0,0 l/m 23,4 km/h (4 Bft) NW 315 5,6 C 4,0 C
03.01.2013 23:21 7,6 C 87 % 1027,6 hPa 0,0 l/m 11,2 km/h (2 Bft) W-NW 292 5,6 C 5,5 C
03.01.2013 23:26 7,6 C 87 % 1027,8 hPa 0,0 l/m 19,4 km/h (3 Bft) W-NW 292 5,6 C 4,4 C
03.01.2013 23:31 7,6 C 86 % 1027,5 hPa 0,0 l/m 10,4 km/h (2 Bft) NW 315 5,4 C 5,7 C
03.01.2013 23:36 7,5 C 86 % 1027,6 hPa 0,0 l/m 8,3 km/h (2 Bft) W-SW 247 5,3 C 6,0 C
03.01.2013 23:41 7,4 C 86 % 1027,6 hPa 0,0 l/m 17,6 km/h (3 Bft) NW 315 5,2 C 4,4 C
03.01.2013 23:46 7,4 C 86 % 1027,3 hPa 0,0 l/m 17,3 km/h (3 Bft) W-NW 292 5,2 C 4,4 C
03.01.2013 23:51 7,4 C 85 % 1027,3 hPa 0,0 l/m 19,8 km/h (3 Bft) NW 315 5,0 C 4,1 C
03.01.2013 23:56 7,3 C 85 % 1027,2 hPa 0,0 l/m 11,2 km/h (2 Bft) NW 315 4,9 C 5,2 C
_ Min-Zeit 00:01 02:01 07:01 - 00:11 - - 00:36 06:01
Minimum _ 5,1 C 83 % 1020,5 hPa - 3,2 km/h (1 Bft) - - 2,8 C 1,0 C
_ Max-Zeit 13:36 07:11 23:26 03:36 07:51 - - 14:36 13:36
Maximum _ 10,1 C 92 % 1027,8 hPa 0,5 l/m 34,9 km/h
W (5 Bft)
- - 8,7 C 10,1 C
Durchschnitt _ 7,7 C 89 % 1023,1 hPa #3,1 l/m 14,9 km/h (3 Bft) W - 6,0 C 5,3 C
(c) by David Heller